Terminal Aerodrome Forecast
Issued by NWS Binghamton, NY

Home | Current Version | Previous Version | Text Only | Print | Product List | Glossary On
Versions: 1 2 3 4 5 6 7 8 9 10 11 12 13 14 15 16 17 18 19
051
FTUS41 KBGM 280520
TAFSYR
TAF
KSYR 280520Z 2806/2906 00000KT P6SM FEW100 SCT250
     FM281500 28006KT P6SM BKN200
     FM282000 32006KT P6SM SCT090 BKN200 PROB30 2821/2902 5SM -SHRA
      BKN060=

USA.gov is the U.S. government's official web portal to all federal, state and local government web resources and services.